createdAt,value
2023-08-02T00:02:31.543Z,99090.31
2023-08-02T00:05:33.444Z,99112.78
2023-08-02T00:08:36.246Z,99110.69
2023-08-02T00:11:38.232Z,99119.03
2023-08-02T00:14:40.134Z,99134.28
2023-08-02T00:17:42.026Z,99126.69
2023-08-02T00:20:45.662Z,99138.38
2023-08-02T00:23:47.446Z,99124.25
2023-08-02T00:26:49.470Z,99123.31
2023-08-02T00:29:51.593Z,99112.00
2023-08-02T00:32:53.512Z,99117.94
2023-08-02T00:35:55.507Z,99138.47
2023-08-02T00:38:57.309Z,99135.09
2023-08-02T00:41:59.081Z,99127.34
2023-08-02T00:45:02.932Z,99129.47
2023-08-02T00:48:05.726Z,99104.66
2023-08-02T00:51:13.893Z,99112.84
2023-08-02T00:54:15.860Z,99115.09
2023-08-02T00:57:17.717Z,99121.84
2023-08-02T01:00:19.675Z,99122.72
2023-08-02T01:03:21.883Z,99097.88
2023-08-02T01:07:08.659Z,99118.47
2023-08-02T01:10:14.374Z,99122.44
2023-08-02T01:13:18.194Z,99133.41
2023-08-02T01:16:21.389Z,99108.56
2023-08-02T01:19:24.028Z,99141.00
2023-08-02T01:22:25.895Z,99152.59
2023-08-02T01:25:31.581Z,99144.56
2023-08-02T01:28:44.118Z,99156.22
2023-08-02T01:31:48.840Z,99158.50
2023-08-02T01:34:52.345Z,99165.25
2023-08-02T01:37:57.468Z,99168.63
2023-08-02T01:40:59.458Z,99175.66
2023-08-02T01:44:01.267Z,99193.50
2023-08-02T01:47:03.198Z,99188.41
2023-08-02T01:50:06.009Z,99207.09
2023-08-02T01:53:07.808Z,99168.31
2023-08-02T01:56:09.648Z,99194.03
2023-08-02T01:59:13.434Z,99198.06
2023-08-02T02:02:15.679Z,99197.81
2023-08-02T02:05:17.536Z,99159.38
2023-08-02T02:08:19.488Z,99172.41
2023-08-02T02:11:21.479Z,99174.41
2023-08-02T02:14:23.242Z,99176.03
2023-08-02T02:17:25.208Z,99181.28
2023-08-02T02:20:27.074Z,99187.97
2023-08-02T02:23:28.924Z,99189.81
2023-08-02T02:26:30.893Z,99165.72
2023-08-02T02:29:32.729Z,99160.09
2023-08-02T02:32:34.564Z,99153.94
2023-08-02T02:35:37.766Z,99167.78
2023-08-02T02:38:39.701Z,99156.47
2023-08-02T02:41:41.502Z,99173.31
2023-08-02T02:44:44.457Z,99194.78
2023-08-02T02:47:46.560Z,99204.13
2023-08-02T02:50:48.557Z,99201.69
2023-08-02T02:53:50.530Z,99190.50
2023-08-02T02:56:52.525Z,99164.94
2023-08-02T02:59:54.599Z,99177.50
2023-08-02T03:02:56.465Z,99173.88
2023-08-02T03:05:58.405Z,99162.03
2023-08-02T03:09:00.269Z,99173.28
2023-08-02T03:12:02.081Z,99181.31
2023-08-02T03:15:04.197Z,99177.81
2023-08-02T03:18:07.802Z,99198.16
2023-08-02T03:21:11.894Z,99156.09
2023-08-02T03:24:14.096Z,99214.88
2023-08-02T03:27:15.909Z,99204.34
2023-08-02T03:30:18.034Z,99209.03
2023-08-02T03:33:19.871Z,99220.94
2023-08-02T03:36:21.788Z,99228.72
2023-08-02T03:39:28.299Z,99220.81
2023-08-02T03:42:30.211Z,99233.66
2023-08-02T03:45:32.039Z,99238.75
2023-08-02T03:48:33.970Z,99244.44
2023-08-02T03:51:35.796Z,99239.34
2023-08-02T03:54:37.789Z,99227.84
2023-08-02T03:57:39.695Z,99231.53
2023-08-02T04:00:41.624Z,99238.94
2023-08-02T04:03:43.610Z,99240.75
2023-08-02T04:06:45.904Z,99251.06
2023-08-02T04:09:48.228Z,99235.16
2023-08-02T04:12:52.576Z,99256.75
2023-08-02T04:15:54.855Z,99261.09
2023-08-02T04:18:56.894Z,99257.00
2023-08-02T04:21:58.864Z,99228.41
2023-08-02T04:25:00.825Z,99261.88
2023-08-02T04:28:02.669Z,99266.69
2023-08-02T04:31:04.545Z,99268.41
2023-08-02T04:34:06.842Z,99222.59
2023-08-02T04:37:08.908Z,99275.94
2023-08-02T04:40:11.787Z,99291.97
2023-08-02T04:43:13.759Z,99284.47
2023-08-02T04:46:15.788Z,99291.75
2023-08-02T04:49:17.765Z,99292.00
2023-08-02T04:52:21.233Z,99290.81
2023-08-02T04:55:24.270Z,99302.00
2023-08-02T04:58:26.475Z,99304.56
2023-08-02T05:01:28.904Z,99321.91
2023-08-02T05:04:30.798Z,99326.16
2023-08-02T05:07:34.537Z,99320.44
2023-08-02T05:10:38.660Z,99331.84
2023-08-02T05:13:40.639Z,99338.06
2023-08-02T05:16:43.966Z,99329.31
2023-08-02T05:19:45.939Z,99337.19
2023-08-02T05:22:47.760Z,99325.06
2023-08-02T05:25:49.642Z,99298.03
2023-08-02T05:28:51.508Z,99343.09
2023-08-02T05:31:53.302Z,99342.72
2023-08-02T05:34:55.165Z,99326.59
2023-08-02T05:37:57.740Z,99333.63
2023-08-02T05:41:05.612Z,99314.22
2023-08-02T05:44:07.472Z,99344.72
2023-08-02T05:47:09.316Z,99358.31
2023-08-02T05:50:11.197Z,99339.66
2023-08-02T05:53:12.992Z,99359.69
2023-08-02T05:56:14.879Z,99363.44
2023-08-02T05:59:16.738Z,99356.66
2023-08-02T06:02:18.680Z,99350.13
2023-08-02T06:05:20.538Z,99345.44
2023-08-02T06:08:22.409Z,99348.84
2023-08-02T06:11:24.263Z,99345.19
2023-08-02T06:14:26.230Z,99354.19
2023-08-02T06:17:28.512Z,99332.75
2023-08-02T06:20:30.411Z,99344.59
2023-08-02T06:23:32.292Z,99346.69
2023-08-02T06:26:34.249Z,99355.03
2023-08-02T06:29:36.328Z,99316.59
2023-08-02T06:32:38.284Z,99353.84
2023-08-02T06:35:40.153Z,99336.00
2023-08-02T06:38:42.104Z,99346.56
2023-08-02T06:41:44.189Z,99344.91
2023-08-02T06:44:46.360Z,99346.44
2023-08-02T06:47:48.241Z,99357.16
2023-08-02T06:50:50.268Z,99352.47
2023-08-02T06:53:52.991Z,99359.09
2023-08-02T06:56:55.014Z,99355.19
2023-08-02T06:59:56.896Z,99367.88
2023-08-02T07:03:05.399Z,99360.66
2023-08-02T07:06:15.604Z,99368.06
2023-08-02T07:09:17.440Z,99368.41
2023-08-02T07:12:19.322Z,99366.56
2023-08-02T07:15:21.138Z,99380.56
2023-08-02T07:18:23.571Z,99386.63
2023-08-02T07:21:25.445Z,99383.59
2023-08-02T07:24:27.452Z,99400.97
2023-08-02T07:27:29.262Z,99404.84
2023-08-02T07:30:31.114Z,99402.63
2023-08-02T07:33:33.207Z,99358.06
2023-08-02T07:36:35.090Z,99422.09
2023-08-02T07:39:39.630Z,99410.22
2023-08-02T07:42:41.416Z,99426.44
2023-08-02T07:45:43.239Z,99402.53
2023-08-02T07:48:45.043Z,99399.16
2023-08-02T07:51:46.835Z,99417.75
2023-08-02T07:54:56.516Z,99373.16
2023-08-02T07:57:58.912Z,99415.25
2023-08-02T08:01:08.778Z,99417.63
2023-08-02T08:04:10.930Z,99416.84
2023-08-02T08:07:13.469Z,99409.41
2023-08-02T08:10:15.439Z,99426.69
2023-08-02T08:13:17.259Z,99420.28
2023-08-02T08:16:19.098Z,99432.63
2023-08-02T08:19:20.998Z,99431.28
2023-08-02T08:22:29.623Z,99418.22
2023-08-02T08:25:32.754Z,99433.28
2023-08-02T08:28:34.485Z,99358.50
2023-08-02T08:31:39.628Z,99442.75
2023-08-02T08:34:43.632Z,99439.50
2023-08-02T08:37:45.702Z,99451.50
2023-08-02T08:40:54.328Z,99445.13
2023-08-02T08:43:56.263Z,99457.22
2023-08-02T08:47:04.056Z,99426.78
2023-08-02T08:50:07.807Z,99470.28
2023-08-02T08:53:11.750Z,99460.28
2023-08-02T08:56:14.490Z,99469.72
2023-08-02T08:59:16.934Z,99465.50
2023-08-02T09:02:19.347Z,99461.09
2023-08-02T09:05:21.654Z,99467.19
2023-08-02T09:08:23.417Z,99444.25
2023-08-02T09:11:25.305Z,99479.44
2023-08-02T09:14:27.212Z,99472.50
2023-08-02T09:17:29.446Z,99477.75
2023-08-02T09:20:31.381Z,99476.09
2023-08-02T09:23:33.365Z,99474.75
2023-08-02T09:26:35.285Z,99436.94
2023-08-02T09:29:51.987Z,99448.13
2023-08-02T09:33:08.498Z,99460.19
2023-08-02T09:36:10.467Z,99437.13
2023-08-02T09:39:16.965Z,99454.44
2023-08-02T09:42:23.294Z,99409.31
2023-08-02T09:45:32.393Z,99435.72
2023-08-02T09:48:37.519Z,99448.09
2023-08-02T09:51:45.058Z,99434.44
2023-08-02T09:54:47.268Z,99431.59
2023-08-02T09:57:50.254Z,99457.81
2023-08-02T10:00:52.264Z,99457.41
2023-08-02T10:03:57.204Z,99446.16
2023-08-02T10:07:13.579Z,99386.31
2023-08-02T10:10:19.882Z,99449.75
2023-08-02T10:13:39.054Z,99432.13
2023-08-02T10:16:44.260Z,99456.53
2023-08-02T10:19:47.418Z,99448.78
2023-08-02T10:22:51.955Z,99448.97
2023-08-02T10:25:54.865Z,99444.56
2023-08-02T10:29:00.270Z,99445.91
2023-08-02T10:32:16.966Z,99451.25
2023-08-02T10:35:57.319Z,99447.72
2023-08-02T10:39:00.033Z,99464.44
2023-08-02T10:42:01.817Z,99453.22
2023-08-02T10:45:03.641Z,99454.78
2023-08-02T10:48:29.794Z,99447.03
2023-08-02T10:51:33.129Z,99438.59
2023-08-02T10:54:34.930Z,99443.72
2023-08-02T10:57:38.461Z,99451.81
2023-08-02T11:00:40.642Z,99442.03
2023-08-02T11:03:42.805Z,99437.38
2023-08-02T11:06:44.903Z,99440.22
2023-08-02T11:09:49.205Z,99446.28
2023-08-02T11:12:55.384Z,99465.53
2023-08-02T11:16:03.168Z,99453.88
2023-08-02T11:19:12.070Z,99452.03
2023-08-02T11:22:14.171Z,99342.22
2023-08-02T11:25:40.655Z,99454.31
2023-08-02T11:28:49.703Z,99448.09
2023-08-02T11:34:56.589Z,99445.75
2023-08-02T11:37:58.890Z,99449.56
2023-08-02T11:41:00.936Z,99445.44
2023-08-02T11:44:02.758Z,99401.91
2023-08-02T11:47:04.620Z,99446.38
2023-08-02T11:50:06.870Z,99440.75
2023-08-02T11:53:10.899Z,99442.47
2023-08-02T11:56:13.584Z,99428.69
2023-08-02T11:59:15.613Z,99440.88
2023-08-02T12:02:29.290Z,99424.81
2023-08-02T12:05:31.207Z,99396.94
2023-08-02T12:08:33.069Z,99424.34
2023-08-02T12:11:34.912Z,99430.41
2023-08-02T12:14:37.705Z,99402.34
2023-08-02T12:17:39.745Z,99427.75
2023-08-02T12:20:41.623Z,99415.59
2023-08-02T12:23:43.471Z,99417.09
2023-08-02T12:26:46.271Z,99409.44
2023-08-02T12:29:48.801Z,99419.88
2023-08-02T12:32:50.685Z,99407.06
2023-08-02T12:35:52.615Z,99420.00
2023-08-02T12:38:55.566Z,99417.66
2023-08-02T12:41:57.375Z,99408.13
2023-08-02T12:45:07.908Z,99401.34
2023-08-02T12:48:17.649Z,99394.88
2023-08-02T12:51:19.599Z,99417.03
2023-08-02T12:54:21.419Z,99354.84
2023-08-02T12:57:23.311Z,99395.75
2023-08-02T13:00:25.125Z,99399.81
2023-08-02T13:03:27.859Z,99391.78
2023-08-02T13:06:32.969Z,99356.09
2023-08-02T13:09:39.791Z,99383.00
2023-08-02T13:12:41.621Z,99367.25
2023-08-02T13:15:45.164Z,99363.00
2023-08-02T13:18:47.578Z,99325.72
2023-08-02T13:21:49.935Z,99390.50
2023-08-02T13:24:52.374Z,99352.28
2023-08-02T13:27:54.194Z,99375.41
2023-08-02T13:30:59.845Z,99346.25
2023-08-02T13:34:01.702Z,99383.84
2023-08-02T13:37:03.526Z,99369.06
2023-08-02T13:40:06.041Z,99358.50
2023-08-02T13:43:09.248Z,99322.03
2023-08-02T13:46:11.135Z,99358.09
2023-08-02T13:49:13.420Z,99351.34
2023-08-02T13:52:17.565Z,99367.88
2023-08-02T13:55:21.233Z,99364.63
2023-08-02T13:58:24.884Z,99371.69
2023-08-02T14:01:26.813Z,99362.03
2023-08-02T14:04:28.813Z,99349.94
2023-08-02T14:07:30.781Z,99353.47
2023-08-02T14:10:32.686Z,99347.03
2023-08-02T14:13:34.526Z,99342.84
2023-08-02T14:16:36.994Z,99347.47
2023-08-02T14:19:38.799Z,99350.53
2023-08-02T14:22:40.637Z,99259.22
2023-08-02T14:25:42.442Z,99314.94
2023-08-02T14:28:44.299Z,99311.28
2023-08-02T14:31:46.092Z,99348.41
2023-08-02T14:34:47.952Z,99317.50
2023-08-02T14:37:49.776Z,99310.88
2023-08-02T14:40:51.986Z,99338.25
2023-08-02T14:43:53.824Z,99346.56
2023-08-02T14:46:55.720Z,99355.19
2023-08-02T14:49:57.569Z,99348.22
2023-08-02T14:52:59.444Z,99316.63
2023-08-02T14:56:01.427Z,99361.50
2023-08-02T14:59:03.339Z,99343.56
2023-08-02T15:02:05.328Z,99332.75
2023-08-02T15:05:07.766Z,99350.94
2023-08-02T15:08:09.565Z,99334.06
2023-08-02T15:11:11.900Z,99346.72
2023-08-02T15:14:13.912Z,99360.41
2023-08-02T15:17:16.006Z,99357.75
2023-08-02T15:20:17.908Z,99354.19
2023-08-02T15:23:20.031Z,99304.31
2023-08-02T15:26:22.052Z,99348.97
2023-08-02T15:29:23.974Z,99348.34
2023-08-02T15:32:25.832Z,99350.06
2023-08-02T15:35:27.722Z,99350.06
2023-08-02T15:38:29.617Z,99363.59
2023-08-02T15:41:33.199Z,99342.31
2023-08-02T15:44:35.268Z,99347.84
2023-08-02T15:47:37.289Z,99341.06
2023-08-02T15:50:51.797Z,99339.94
2023-08-02T15:53:53.841Z,99332.50
2023-08-02T15:56:55.835Z,99323.78
2023-08-02T15:59:57.940Z,99287.47
2023-08-02T16:03:01.569Z,99324.63
2023-08-02T16:06:03.551Z,99334.78
2023-08-02T16:09:05.517Z,99344.22
2023-08-02T16:12:07.575Z,99315.03
2023-08-02T16:15:09.920Z,99333.44
2023-08-02T16:18:11.912Z,99332.59
2023-08-02T16:21:13.864Z,99330.75
2023-08-02T16:24:16.958Z,99288.41
2023-08-02T16:27:20.699Z,99340.09
2023-08-02T16:30:22.734Z,99328.59
2023-08-02T16:33:24.782Z,99312.69
2023-08-02T16:36:26.780Z,99334.50
2023-08-02T16:39:29.238Z,99322.16
2023-08-02T16:42:31.325Z,99328.91
2023-08-02T16:45:36.480Z,99328.91
2023-08-02T16:48:38.508Z,99325.03
2023-08-02T16:51:40.613Z,99325.19
2023-08-02T16:54:42.749Z,99270.88
2023-08-02T16:57:44.586Z,99308.69
2023-08-02T17:00:46.328Z,99321.19
2023-08-02T17:03:48.584Z,99313.56
2023-08-02T17:06:50.558Z,99296.69
2023-08-02T17:09:52.797Z,99321.81
2023-08-02T17:12:54.661Z,99329.75
2023-08-02T17:15:56.639Z,99322.13
2023-08-02T17:18:58.559Z,99326.13
2023-08-02T17:22:00.374Z,99327.66
2023-08-02T17:25:02.175Z,99327.09
2023-08-02T17:28:04.178Z,99281.13
2023-08-02T17:31:06.003Z,99333.75
2023-08-02T17:34:08.106Z,99319.06
2023-08-02T17:37:10.088Z,99319.84
2023-08-02T17:40:12.549Z,99296.47
2023-08-02T17:43:14.660Z,99325.19
2023-08-02T17:46:26.602Z,99317.88
2023-08-02T17:49:29.625Z,99303.84
2023-08-02T17:52:31.693Z,99306.84
2023-08-02T17:55:34.033Z,99318.66
2023-08-02T17:58:37.341Z,99325.88
2023-08-02T18:01:39.374Z,99318.22
2023-08-02T18:04:41.911Z,99320.06
2023-08-02T18:07:43.887Z,99326.94
2023-08-02T18:10:45.763Z,99328.19
2023-08-02T18:13:47.763Z,99330.50
2023-08-02T18:16:49.730Z,99337.38
2023-08-02T18:19:51.768Z,99343.22
2023-08-02T18:22:53.760Z,99322.97
2023-08-02T18:25:55.702Z,99219.75
2023-08-02T18:28:57.618Z,99330.91
2023-08-02T18:31:59.533Z,99354.81
2023-08-02T18:35:01.883Z,99355.97
2023-08-02T18:38:04.193Z,99357.41
2023-08-02T18:41:15.517Z,99358.56
2023-08-02T18:44:17.405Z,99361.88
2023-08-02T18:47:19.219Z,99367.00
2023-08-02T18:50:21.185Z,99366.91
2023-08-02T18:53:25.016Z,99381.94
2023-08-02T18:56:26.775Z,99360.16
2023-08-02T18:59:28.854Z,99330.97
2023-08-02T19:02:31.312Z,99354.69
2023-08-02T19:05:33.643Z,99232.84
2023-08-02T19:08:36.687Z,99370.38
2023-08-02T19:11:42.017Z,99373.34
2023-08-02T19:14:48.291Z,99377.88
2023-08-02T19:17:50.324Z,99368.31
2023-08-02T19:20:55.473Z,99384.94
2023-08-02T19:23:57.623Z,99390.94
2023-08-02T19:27:04.136Z,99381.19
2023-08-02T19:30:07.523Z,99361.75
2023-08-02T19:33:15.644Z,99380.59
2023-08-02T19:36:22.623Z,99372.41
2023-08-02T19:39:33.646Z,99394.44
2023-08-02T19:42:44.544Z,99397.84
2023-08-02T19:45:47.634Z,99377.38
2023-08-02T19:48:49.677Z,99366.53
2023-08-02T19:51:52.247Z,99390.53
2023-08-02T19:54:54.060Z,99393.94
2023-08-02T19:57:56.095Z,99387.19
2023-08-02T20:00:58.313Z,99390.41
2023-08-02T20:04:02.328Z,99392.81
2023-08-02T20:07:04.771Z,99389.72
2023-08-02T20:10:32.964Z,99396.75
2023-08-02T20:13:43.809Z,99400.72
2023-08-02T20:16:45.786Z,99409.75
2023-08-02T20:19:48.085Z,99417.09
2023-08-02T20:22:50.100Z,99380.03
2023-08-02T20:25:56.681Z,99416.50
2023-08-02T20:28:59.118Z,99404.47
2023-08-02T20:32:01.047Z,99403.75
2023-08-02T20:35:03.303Z,99412.47
2023-08-02T20:38:09.449Z,99393.69
2023-08-02T20:41:21.316Z,99401.59
2023-08-02T20:44:24.788Z,99401.16
2023-08-02T20:47:27.399Z,99395.47
2023-08-02T20:50:29.158Z,99402.81
2023-08-02T20:53:31.335Z,99416.34
2023-08-02T20:56:35.118Z,99415.38
2023-08-02T20:59:38.419Z,99406.72
2023-08-02T21:02:44.409Z,99404.44
2023-08-02T21:05:46.392Z,99402.47
2023-08-02T21:08:48.601Z,99402.66
2023-08-02T21:11:50.662Z,99413.50
2023-08-02T21:14:52.734Z,99405.38
2023-08-02T21:17:54.884Z,99414.84
2023-08-02T21:20:57.323Z,99377.06
2023-08-02T21:23:59.186Z,99402.06
2023-08-02T21:27:01.147Z,99340.13
2023-08-02T21:30:03.115Z,99398.47
2023-08-02T21:33:04.976Z,99402.13
2023-08-02T21:36:07.010Z,99404.94
2023-08-02T21:39:12.207Z,99423.53
2023-08-02T21:42:23.460Z,99421.03
2023-08-02T21:45:25.710Z,99446.25
2023-08-02T21:48:31.534Z,99392.47
2023-08-02T21:51:33.524Z,99411.53
2023-08-02T21:54:35.399Z,99386.44
2023-08-02T21:57:38.967Z,99432.56
2023-08-02T22:00:40.736Z,99439.75
2023-08-02T22:03:42.576Z,99443.16
2023-08-02T22:06:45.005Z,99434.59
2023-08-02T22:09:47.393Z,99442.47
2023-08-02T22:12:49.379Z,99442.72
2023-08-02T22:15:51.151Z,99443.94
2023-08-02T22:18:53.121Z,99430.47
2023-08-02T22:21:54.914Z,99442.63
2023-08-02T22:24:56.730Z,99438.13
2023-08-02T22:27:58.658Z,99445.66
2023-08-02T22:31:00.362Z,99455.84
2023-08-02T22:34:02.145Z,99439.00
2023-08-02T22:37:04.163Z,99451.75
2023-08-02T22:40:06.658Z,99441.47
2023-08-02T22:43:08.504Z,99409.16
2023-08-02T22:46:10.471Z,99436.38
2023-08-02T22:50:31.192Z,99438.94
2023-08-02T22:52:34.048Z,99438.81
2023-08-02T22:55:36.964Z,99453.84
2023-08-02T22:58:38.868Z,99444.03
2023-08-02T23:01:40.704Z,99449.13
2023-08-02T23:04:43.144Z,99437.44
2023-08-02T23:07:45.125Z,99443.63
2023-08-02T23:10:47.046Z,99433.09
2023-08-02T23:13:51.466Z,99432.09
2023-08-02T23:16:53.260Z,99425.91
2023-08-02T23:19:54.972Z,99434.78
2023-08-02T23:23:00.086Z,99441.19
2023-08-02T23:26:09.431Z,99447.16
2023-08-02T23:29:12.368Z,99419.44
2023-08-02T23:32:14.268Z,99434.97
2023-08-02T23:35:16.040Z,99431.78
2023-08-02T23:38:17.977Z,99449.25
2023-08-02T23:41:19.915Z,99435.63
2023-08-02T23:44:21.640Z,99435.38
2023-08-02T23:47:23.515Z,99424.22
2023-08-02T23:50:25.263Z,99417.66
2023-08-02T23:53:27.028Z,99418.19
2023-08-02T23:56:28.802Z,99429.16
2023-08-02T23:59:30.572Z,99439.84
